createdAt,value
2019-05-10T00:00:35.723Z,97180.22
2019-05-10T00:03:01.864Z,97180.37
2019-05-10T00:05:28.880Z,97178.67
2019-05-10T00:07:55.057Z,97186.68
2019-05-10T00:10:21.200Z,97181.75
2019-05-10T00:12:47.101Z,97179.59
2019-05-10T00:15:13.262Z,97181.16
2019-05-10T00:17:39.164Z,97183.59
2019-05-10T00:20:06.561Z,97176.73
2019-05-10T00:22:32.505Z,97180.52
2019-05-10T00:25:04.389Z,97182.17
2019-05-10T00:27:26.595Z,97187.14
2019-05-10T00:29:52.750Z,97191.80
2019-05-10T00:32:18.653Z,97192.84
2019-05-10T00:34:44.586Z,97201.55
2019-05-10T00:37:10.734Z,97205.97
2019-05-10T00:39:36.637Z,97204.45
2019-05-10T00:42:02.979Z,97209.10
2019-05-10T00:44:28.894Z,97212.02
2019-05-10T00:46:54.846Z,97211.19
2019-05-10T00:49:20.741Z,97213.52
2019-05-10T00:51:46.683Z,97216.14
2019-05-10T00:54:12.588Z,97219.00
2019-05-10T00:56:38.821Z,97219.45
2019-05-10T00:59:04.837Z,97221.98
2019-05-10T01:01:30.886Z,97226.42
2019-05-10T01:03:56.856Z,97232.70
2019-05-10T01:06:22.942Z,97229.56
2019-05-10T01:08:49.172Z,97234.41
2019-05-10T01:11:15.103Z,97236.09
2019-05-10T01:13:41.237Z,97236.34
2019-05-10T01:16:07.240Z,97242.80
2019-05-10T01:18:33.305Z,97243.88
2019-05-10T01:20:59.349Z,97244.20
2019-05-10T01:23:25.389Z,97244.84
2019-05-10T01:25:51.292Z,97248.06
2019-05-10T01:28:17.505Z,97248.26
2019-05-10T01:30:43.407Z,97218.16
2019-05-10T01:33:09.360Z,97260.00
2019-05-10T01:35:35.274Z,97262.41
2019-05-10T01:38:01.250Z,97265.60
2019-05-10T01:40:27.303Z,97267.81
2019-05-10T01:42:53.279Z,97267.65
2019-05-10T01:45:19.293Z,97269.78
2019-05-10T01:47:45.412Z,97269.80
2019-05-10T01:50:11.532Z,97266.33
2019-05-10T01:52:37.475Z,97268.58
2019-05-10T01:55:05.590Z,97259.88
2019-05-10T01:57:31.531Z,97262.18
2019-05-10T01:59:57.437Z,97274.33
2019-05-10T02:02:23.522Z,97276.94
2019-05-10T02:04:49.499Z,97276.27
2019-05-10T02:07:15.434Z,97283.84
2019-05-10T02:09:42.444Z,97284.25
2019-05-10T02:12:08.385Z,97288.13
2019-05-10T02:14:34.470Z,97286.16
2019-05-10T02:17:00.459Z,97296.83
2019-05-10T02:19:26.385Z,97296.23
2019-05-10T02:21:52.305Z,97297.35
2019-05-10T02:24:18.344Z,97303.15
2019-05-10T02:26:44.254Z,97306.17
2019-05-10T02:29:10.305Z,97308.20
2019-05-10T02:31:36.217Z,97311.43
2019-05-10T02:34:02.494Z,97309.52
2019-05-10T02:36:28.402Z,97313.97
2019-05-10T02:38:54.348Z,97312.36
2019-05-10T02:41:20.401Z,97315.09
2019-05-10T02:43:46.344Z,97322.59
2019-05-10T02:46:12.494Z,97316.71
2019-05-10T02:48:38.553Z,97317.64
2019-05-10T02:51:04.761Z,97321.67
2019-05-10T02:53:32.032Z,97362.08
2019-05-10T02:55:58.194Z,97322.89
2019-05-10T02:58:24.760Z,97327.22
2019-05-10T03:00:52.905Z,97328.26
2019-05-10T03:03:22.610Z,97319.55
2019-05-10T03:05:52.083Z,97328.94
2019-05-10T03:08:18.042Z,97332.70
2019-05-10T03:10:56.238Z,97338.69
2019-05-10T03:13:27.247Z,97342.11
2019-05-10T03:15:55.347Z,97342.33
2019-05-10T03:18:23.945Z,97348.01
2019-05-10T03:20:53.750Z,97347.78
2019-05-10T03:23:20.088Z,97355.67
2019-05-10T03:25:46.001Z,97360.24
2019-05-10T03:28:12.148Z,97357.70
2019-05-10T03:30:38.058Z,97359.09
2019-05-10T03:33:03.983Z,97367.00
2019-05-10T03:35:30.294Z,97360.14
2019-05-10T03:37:56.238Z,97365.09
2019-05-10T03:40:22.146Z,97372.91
2019-05-10T03:42:48.703Z,97370.67
2019-05-10T03:45:15.091Z,97379.48
2019-05-10T03:47:41.000Z,97375.61
2019-05-10T03:50:07.674Z,97379.48
2019-05-10T03:52:33.600Z,97381.19
2019-05-10T03:54:59.550Z,97377.65
2019-05-10T03:57:25.670Z,97378.56
2019-05-10T03:59:51.615Z,97385.59
2019-05-10T04:02:17.531Z,97384.77
2019-05-10T04:04:43.503Z,97387.61
2019-05-10T04:07:09.431Z,97383.75
2019-05-10T04:09:35.343Z,97388.51
2019-05-10T04:12:01.603Z,97385.88
2019-05-10T04:14:27.512Z,97392.38
2019-05-10T04:16:53.671Z,97397.25
2019-05-10T04:19:20.907Z,97398.75
2019-05-10T04:21:46.906Z,97401.87
2019-05-10T04:24:12.820Z,97402.29
2019-05-10T04:26:38.760Z,97411.10
2019-05-10T04:29:04.827Z,97410.27
2019-05-10T04:31:30.772Z,97409.14
2019-05-10T04:33:56.663Z,97403.36
2019-05-10T04:36:22.624Z,97408.48
2019-05-10T04:38:48.528Z,97414.45
2019-05-10T04:41:14.430Z,97413.19
2019-05-10T04:43:40.498Z,97409.31
2019-05-10T04:46:06.413Z,97420.15
2019-05-10T04:48:32.353Z,97422.64
2019-05-10T04:50:58.253Z,97421.33
2019-05-10T04:53:24.312Z,97422.27
2019-05-10T04:55:50.275Z,97422.84
2019-05-10T04:58:16.365Z,97422.21
2019-05-10T05:00:42.367Z,97425.02
2019-05-10T05:03:08.321Z,97425.87
2019-05-10T05:05:34.963Z,97432.00
2019-05-10T05:08:00.988Z,97428.44
2019-05-10T05:10:26.926Z,97430.30
2019-05-10T05:12:52.833Z,97432.09
2019-05-10T05:15:18.879Z,97431.41
2019-05-10T05:17:45.998Z,97440.37
2019-05-10T05:20:13.069Z,97437.08
2019-05-10T05:22:39.112Z,97449.88
2019-05-10T05:25:06.217Z,97444.30
2019-05-10T05:27:32.147Z,97452.12
2019-05-10T05:29:58.095Z,97452.12
2019-05-10T05:32:24.006Z,97449.63
2019-05-10T05:34:49.953Z,97446.89
2019-05-10T05:37:15.927Z,97452.27
2019-05-10T05:39:41.865Z,97425.63
2019-05-10T05:42:08.039Z,97455.50
2019-05-10T05:44:34.062Z,97468.69
2019-05-10T05:47:00.001Z,97455.23
2019-05-10T05:49:25.993Z,97471.17
2019-05-10T05:51:51.938Z,97473.98
2019-05-10T05:54:20.900Z,97469.95
2019-05-10T05:56:50.632Z,97466.86
2019-05-10T05:59:17.386Z,97466.30
2019-05-10T06:01:42.554Z,97473.94
2019-05-10T06:04:12.533Z,97474.89
2019-05-10T06:06:36.316Z,97473.98
2019-05-10T06:09:05.088Z,97483.24
2019-05-10T06:11:35.818Z,97484.69
2019-05-10T06:14:03.935Z,97483.72
2019-05-10T06:16:26.803Z,97486.52
2019-05-10T06:18:52.802Z,97482.55
2019-05-10T06:21:25.151Z,97482.55
2019-05-10T06:23:46.769Z,97482.56
2019-05-10T06:26:21.410Z,97479.42
2019-05-10T06:28:58.522Z,97491.23
2019-05-10T06:31:08.865Z,97482.84
2019-05-10T06:33:34.834Z,97485.66
2019-05-10T06:36:00.877Z,97485.27
2019-05-10T06:38:26.789Z,97492.93
2019-05-10T06:40:52.735Z,97493.91
2019-05-10T06:43:18.641Z,97484.42
2019-05-10T06:45:46.713Z,97489.92
2019-05-10T06:48:12.772Z,97489.62
2019-05-10T06:50:38.892Z,97494.77
2019-05-10T06:53:07.757Z,97492.16
2019-05-10T06:55:32.932Z,97491.68
2019-05-10T06:58:00.845Z,97478.19
2019-05-10T07:00:26.694Z,97482.84
2019-05-10T07:02:52.645Z,97482.59
2019-05-10T07:05:18.586Z,97482.72
2019-05-10T07:07:45.629Z,97487.14
2019-05-10T07:10:18.607Z,97496.09
2019-05-10T07:12:40.161Z,97490.45
2019-05-10T07:15:06.917Z,97500.22
2019-05-10T07:17:41.280Z,97497.30
2019-05-10T07:20:01.266Z,97508.63
2019-05-10T07:22:28.978Z,97508.73
2019-05-10T07:24:57.142Z,97513.05
2019-05-10T07:27:22.981Z,97518.73
2019-05-10T07:29:49.082Z,97516.37
2019-05-10T07:32:16.320Z,97515.36
2019-05-10T07:34:48.790Z,97521.63
2019-05-10T07:37:11.136Z,97520.82
2019-05-10T07:39:37.185Z,97517.06
2019-05-10T07:42:06.769Z,97513.19
2019-05-10T07:44:31.227Z,97517.89
2019-05-10T07:46:59.504Z,97514.19
2019-05-10T07:49:30.088Z,97526.19
2019-05-10T07:51:53.308Z,97522.95
2019-05-10T07:54:19.326Z,97530.30
2019-05-10T07:56:47.673Z,97531.63
2019-05-10T07:59:16.438Z,97535.14
2019-05-10T08:01:43.296Z,97521.67
2019-05-10T08:04:12.782Z,97524.30
2019-05-10T08:06:44.136Z,97527.36
2019-05-10T08:09:09.562Z,97524.58
2019-05-10T08:11:35.214Z,97518.20
2019-05-10T08:14:05.986Z,97534.29
2019-05-10T08:16:29.372Z,97544.73
2019-05-10T08:19:00.512Z,97551.41
2019-05-10T08:21:26.514Z,97546.73
2019-05-10T08:23:54.039Z,97560.01
2019-05-10T08:26:24.223Z,97554.92
2019-05-10T08:28:47.967Z,97550.34
2019-05-10T08:31:14.269Z,97555.00
2019-05-10T08:33:44.165Z,97561.84
2019-05-10T08:36:12.217Z,97563.25
2019-05-10T08:38:39.758Z,97567.23
2019-05-10T08:41:08.258Z,97565.84
2019-05-10T08:43:38.890Z,97579.34
2019-05-10T08:46:02.710Z,97570.53
2019-05-10T08:48:28.828Z,97573.80
2019-05-10T08:50:57.607Z,97572.37
2019-05-10T08:53:23.421Z,97576.13
2019-05-10T08:55:49.323Z,97582.26
2019-05-10T08:58:23.920Z,97577.50
2019-05-10T09:00:54.223Z,97592.42
2019-05-10T09:03:18.331Z,97591.64
2019-05-10T09:05:40.258Z,97581.12
2019-05-10T09:08:13.573Z,97599.59
2019-05-10T09:10:35.492Z,97594.87
2019-05-10T09:13:03.290Z,97597.98
2019-05-10T09:15:29.342Z,97597.73
2019-05-10T09:17:58.351Z,97603.00
2019-05-10T09:20:26.491Z,97603.89
2019-05-10T09:22:52.879Z,97600.05
2019-05-10T09:25:20.231Z,97601.22
2019-05-10T09:27:47.231Z,97612.96
2019-05-10T09:30:18.559Z,97619.00
2019-05-10T09:32:44.694Z,97620.71
2019-05-10T09:35:12.756Z,97626.55
2019-05-10T09:37:39.094Z,97629.92
2019-05-10T09:40:09.950Z,97628.05
2019-05-10T09:42:40.067Z,97627.19
2019-05-10T09:45:04.278Z,97635.63
2019-05-10T09:47:30.221Z,97636.38
2019-05-10T09:49:58.820Z,97647.28
2019-05-10T09:52:24.001Z,97648.39
2019-05-10T09:54:50.063Z,97655.98
2019-05-10T09:57:17.400Z,97657.86
2019-05-10T09:59:43.515Z,97656.41
2019-05-10T10:02:14.722Z,97661.89
2019-05-10T10:04:37.354Z,97669.68
2019-05-10T10:07:03.480Z,97668.47
2019-05-10T10:09:37.313Z,97669.31
2019-05-10T10:12:02.812Z,97680.20
2019-05-10T10:14:28.356Z,97683.43
2019-05-10T10:16:58.212Z,97691.81
2019-05-10T10:19:24.491Z,97697.58
2019-05-10T10:21:49.864Z,97703.94
2019-05-10T10:24:20.054Z,97702.97
2019-05-10T10:26:43.683Z,97707.34
2019-05-10T10:29:09.734Z,97720.91
2019-05-10T10:31:46.527Z,97711.34
2019-05-10T10:34:03.789Z,97713.76
2019-05-10T10:36:29.901Z,97610.12
2019-05-10T10:38:55.836Z,97714.81
2019-05-10T10:41:25.960Z,97721.69
2019-05-10T10:43:49.661Z,97719.80
2019-05-10T10:46:17.691Z,97723.72
2019-05-10T10:48:48.930Z,97730.33
2019-05-10T10:51:11.645Z,97722.89
2019-05-10T10:53:37.795Z,97705.29
2019-05-10T10:56:04.100Z,97738.94
2019-05-10T10:58:30.169Z,97735.64
2019-05-10T11:00:56.250Z,97750.15
2019-05-10T11:03:24.004Z,97740.35
2019-05-10T11:05:50.231Z,97747.77
2019-05-10T11:08:16.221Z,97749.23
2019-05-10T11:10:42.905Z,97748.08
2019-05-10T11:13:13.998Z,97749.78
2019-05-10T11:15:38.574Z,97749.92
2019-05-10T11:18:04.612Z,97743.97
2019-05-10T11:20:31.717Z,97751.82
2019-05-10T11:22:58.088Z,97743.73
2019-05-10T11:25:24.244Z,97750.66
2019-05-10T11:27:53.939Z,97751.53
2019-05-10T11:30:18.354Z,97749.41
2019-05-10T11:32:44.259Z,97750.19
2019-05-10T11:35:16.944Z,97749.23
2019-05-10T11:37:42.113Z,97752.44
2019-05-10T11:40:08.038Z,97754.70
2019-05-10T11:42:37.457Z,97752.83
2019-05-10T11:45:02.380Z,97752.98
2019-05-10T11:47:31.084Z,97753.40
2019-05-10T11:49:56.242Z,97756.48
2019-05-10T11:52:23.382Z,97758.52
2019-05-10T11:54:51.430Z,97755.41
2019-05-10T11:57:17.325Z,97756.33
2019-05-10T11:59:43.420Z,97758.82
2019-05-10T12:02:10.628Z,97758.82
2019-05-10T12:04:39.544Z,97757.80
2019-05-10T12:07:08.383Z,97764.31
2019-05-10T12:09:33.045Z,97762.33
2019-05-10T12:12:03.025Z,97765.25
2019-05-10T12:14:26.782Z,97770.38
2019-05-10T12:16:54.524Z,97773.64
2019-05-10T12:19:21.405Z,97767.66
2019-05-10T12:21:48.633Z,97773.91
2019-05-10T12:24:32.388Z,97773.72
2019-05-10T12:29:13.560Z,97773.79
2019-05-10T12:31:38.350Z,97773.20
2019-05-10T12:34:08.891Z,97766.84
2019-05-10T12:36:32.212Z,97777.60
2019-05-10T12:38:58.947Z,97784.23
2019-05-10T12:41:25.571Z,97788.95
2019-05-10T12:43:51.863Z,97778.43
2019-05-10T12:46:20.551Z,97775.39
2019-05-10T12:48:45.876Z,97781.09
2019-05-10T12:51:15.713Z,97775.11
2019-05-10T12:53:44.571Z,97772.33
2019-05-10T12:56:07.630Z,97778.22
2019-05-10T12:58:33.621Z,97772.28
2019-05-10T13:00:59.874Z,97774.33
2019-05-10T13:03:31.553Z,97781.69
2019-05-10T13:05:53.846Z,97777.66
2019-05-10T13:08:19.920Z,97774.39
2019-05-10T13:10:49.782Z,97777.09
2019-05-10T13:13:17.504Z,97778.52
2019-05-10T13:15:43.022Z,97764.59
2019-05-10T13:18:09.119Z,97768.63
2019-05-10T13:20:38.379Z,97769.49
2019-05-10T13:23:04.080Z,97772.44
2019-05-10T13:25:30.010Z,97766.58
2019-05-10T13:27:55.962Z,97767.20
2019-05-10T13:30:27.037Z,97765.45
2019-05-10T13:32:52.780Z,97761.55
2019-05-10T13:35:19.130Z,97768.64
2019-05-10T13:37:45.178Z,97767.00
2019-05-10T13:40:11.492Z,97767.09
2019-05-10T13:42:43.192Z,97753.76
2019-05-10T13:45:05.978Z,97760.19
2019-05-10T13:47:32.034Z,97762.40
2019-05-10T13:49:58.041Z,97759.99
2019-05-10T13:52:29.821Z,97765.84
2019-05-10T13:54:52.166Z,97775.42
2019-05-10T13:57:18.080Z,97760.23
2019-05-10T13:59:48.802Z,97762.05
2019-05-10T14:02:12.140Z,97761.34
2019-05-10T14:04:38.777Z,97760.72
2019-05-10T14:07:06.071Z,97766.73
2019-05-10T14:09:31.982Z,97776.05
2019-05-10T14:11:58.126Z,97778.97
2019-05-10T14:14:26.645Z,97787.41
2019-05-10T14:16:52.108Z,97791.61
2019-05-10T14:19:22.790Z,97805.75
2019-05-10T14:21:46.054Z,97798.96
2019-05-10T14:24:15.283Z,97807.26
2019-05-10T14:26:39.896Z,97803.38
2019-05-10T14:29:05.795Z,97802.88
2019-05-10T14:31:31.737Z,97794.00
2019-05-10T14:34:14.667Z,97795.02
2019-05-10T14:36:25.510Z,97786.84
2019-05-10T14:38:53.671Z,97788.11
2019-05-10T14:41:19.534Z,97788.86
2019-05-10T14:43:45.582Z,97793.38
2019-05-10T14:46:13.898Z,97801.23
2019-05-10T14:48:39.617Z,97792.69
2019-05-10T14:51:11.329Z,97792.05
2019-05-10T14:53:33.524Z,97793.15
2019-05-10T14:55:59.505Z,97792.67
2019-05-10T14:58:25.446Z,97807.30
2019-05-10T15:00:51.492Z,97802.62
2019-05-10T15:03:17.450Z,97806.72
2019-05-10T15:05:43.474Z,97801.84
2019-05-10T15:08:09.751Z,97804.80
2019-05-10T15:10:39.569Z,97810.45
2019-05-10T15:13:05.733Z,97814.94
2019-05-10T15:15:37.280Z,97816.31
2019-05-10T15:18:02.318Z,97815.30
2019-05-10T15:20:29.268Z,97821.31
2019-05-10T15:22:56.738Z,97821.79
2019-05-10T15:25:22.862Z,97821.63
2019-05-10T15:27:54.851Z,97820.20
2019-05-10T15:30:24.719Z,97816.59
2019-05-10T15:32:54.321Z,97826.59
2019-05-10T15:35:22.203Z,97828.63
2019-05-10T15:37:51.611Z,97830.41
2019-05-10T15:40:17.990Z,97835.19
2019-05-10T15:42:44.080Z,97833.38
2019-05-10T15:45:12.467Z,97835.94
2019-05-10T15:47:50.041Z,97837.66
2019-05-10T15:50:06.893Z,97842.25
2019-05-10T15:52:33.880Z,97843.50
2019-05-10T15:54:59.998Z,97836.54
2019-05-10T15:57:32.333Z,97839.65
2019-05-10T15:59:59.085Z,97845.44
2019-05-10T16:02:25.476Z,97842.76
2019-05-10T16:04:51.492Z,97839.23
2019-05-10T16:07:17.621Z,97843.87
2019-05-10T16:09:43.774Z,97692.16
2019-05-10T16:12:09.889Z,97845.48
2019-05-10T16:14:39.051Z,97851.08
2019-05-10T16:17:03.952Z,97848.94
2019-05-10T16:19:29.953Z,97846.05
2019-05-10T16:21:58.126Z,97853.91
2019-05-10T16:24:26.122Z,97856.70
2019-05-10T16:26:54.645Z,97859.52
2019-05-10T16:29:19.471Z,97859.66
2019-05-10T16:31:46.549Z,97864.01
2019-05-10T16:34:12.452Z,97861.09
2019-05-10T16:36:38.421Z,97861.29
2019-05-10T16:39:05.351Z,97862.76
2019-05-10T16:41:31.436Z,97863.16
2019-05-10T16:43:59.925Z,97869.92
2019-05-10T16:46:25.438Z,97875.10
2019-05-10T16:48:51.538Z,97871.92
2019-05-10T16:51:17.504Z,97869.78
2019-05-10T16:53:45.728Z,97872.83
2019-05-10T16:56:13.290Z,97877.04
2019-05-10T16:58:40.586Z,97879.49
2019-05-10T17:01:06.761Z,97884.94
2019-05-10T17:03:33.004Z,97890.68
2019-05-10T17:06:04.222Z,97888.86
2019-05-10T17:08:30.707Z,97888.05
2019-05-10T17:10:55.309Z,97888.05
2019-05-10T17:13:22.756Z,97890.19
2019-05-10T17:15:49.096Z,97890.19
2019-05-10T17:18:17.727Z,97887.00
2019-05-10T17:20:45.522Z,97882.70
2019-05-10T17:23:11.389Z,97882.70
2019-05-10T17:25:40.659Z,97887.02
2019-05-10T17:28:05.347Z,97894.67
2019-05-10T17:30:31.320Z,97894.67
2019-05-10T17:33:03.214Z,97894.46
2019-05-10T17:35:25.466Z,97890.39
2019-05-10T17:37:53.051Z,97898.82
2019-05-10T17:40:20.286Z,97892.54
2019-05-10T17:42:47.260Z,97892.33
2019-05-10T17:45:13.759Z,97892.95
2019-05-10T17:47:39.985Z,97888.89
2019-05-10T17:50:07.465Z,97897.71
2019-05-10T17:52:33.490Z,97897.61
2019-05-10T17:54:59.558Z,97898.10
2019-05-10T17:57:25.496Z,97903.97
2019-05-10T17:59:52.883Z,97902.68
2019-05-10T18:02:19.255Z,97906.84
2019-05-10T18:04:45.668Z,97906.53
2019-05-10T18:07:11.616Z,97915.59
2019-05-10T18:09:37.805Z,97914.98
2019-05-10T18:12:03.998Z,97911.11
2019-05-10T18:14:30.005Z,97913.66
2019-05-10T18:16:56.152Z,97913.56
2019-05-10T18:19:24.665Z,97917.03
2019-05-10T18:21:54.966Z,97922.31
2019-05-10T18:24:18.503Z,97925.27
2019-05-10T18:26:45.215Z,97924.45
2019-05-10T18:29:11.174Z,97929.22
2019-05-10T18:31:38.329Z,97925.45
2019-05-10T18:34:04.550Z,97924.61
2019-05-10T18:36:50.313Z,97929.57
2019-05-10T18:38:58.453Z,97923.30
2019-05-10T18:41:24.747Z,97921.79
2019-05-10T18:43:50.733Z,97927.13
2019-05-10T18:46:16.792Z,97924.05
2019-05-10T18:48:44.723Z,97932.94
2019-05-10T18:51:10.812Z,97917.91
2019-05-10T18:53:36.767Z,97912.72
2019-05-10T18:56:02.828Z,97921.30
2019-05-10T18:58:31.393Z,97917.51
2019-05-10T19:01:00.518Z,97922.12
2019-05-10T19:03:27.944Z,97927.83
2019-05-10T19:05:52.926Z,97933.56
2019-05-10T19:08:19.066Z,97928.41
2019-05-10T19:10:45.141Z,97931.38
2019-05-10T19:13:11.593Z,97930.41
2019-05-10T19:15:37.999Z,97931.87
2019-05-10T19:18:04.112Z,97936.72
2019-05-10T19:20:31.134Z,97934.95
2019-05-10T19:22:57.084Z,97939.64
2019-05-10T19:25:24.279Z,97937.43
2019-05-10T19:27:51.206Z,97938.17
2019-05-10T19:30:22.364Z,97946.43
2019-05-10T19:32:45.593Z,97938.38
2019-05-10T19:35:11.823Z,97947.74
2019-05-10T19:37:38.147Z,97951.19
2019-05-10T19:40:06.472Z,97955.83
2019-05-10T19:42:37.323Z,97972.91
2019-05-10T19:45:00.373Z,97973.77
2019-05-10T19:47:26.325Z,97977.66
2019-05-10T19:49:53.528Z,97981.64
2019-05-10T19:52:21.237Z,97959.17
2019-05-10T19:54:47.844Z,97980.69
2019-05-10T19:57:16.412Z,97979.54
2019-05-10T19:59:44.041Z,97986.47
2019-05-10T20:02:09.930Z,97984.73
2019-05-10T20:04:36.009Z,97987.73
2019-05-10T20:07:02.526Z,97988.36
2019-05-10T20:09:29.966Z,97991.56
2019-05-10T20:11:56.227Z,97997.45
2019-05-10T20:14:24.465Z,97985.36
2019-05-10T20:16:53.095Z,97990.51
2019-05-10T20:19:18.628Z,97986.13
2019-05-10T20:21:44.840Z,97981.59
2019-05-10T20:24:10.981Z,97979.30
2019-05-10T20:26:36.896Z,97978.83
2019-05-10T20:29:03.070Z,97984.41
2019-05-10T20:31:30.667Z,97980.01
2019-05-10T20:33:56.938Z,97976.34
2019-05-10T20:36:22.959Z,97978.25
2019-05-10T20:38:48.905Z,97980.79
2019-05-10T20:41:14.837Z,97979.44
2019-05-10T20:43:40.836Z,97975.50
2019-05-10T20:46:07.256Z,97980.06
2019-05-10T20:48:33.457Z,97978.27
2019-05-10T20:50:59.389Z,97975.93
2019-05-10T20:53:25.494Z,97978.89
2019-05-10T20:55:51.635Z,97991.55
2019-05-10T20:58:17.589Z,97994.66
2019-05-10T21:00:43.739Z,98003.57
2019-05-10T21:03:11.364Z,97995.16
2019-05-10T21:05:37.375Z,97988.72
2019-05-10T21:08:16.039Z,97984.27
2019-05-10T21:10:31.437Z,97978.88
2019-05-10T21:12:57.389Z,97987.15
2019-05-10T21:15:23.309Z,98005.47
2019-05-10T21:17:49.285Z,98000.10
2019-05-10T21:20:15.486Z,97990.18
2019-05-10T21:22:41.574Z,97987.30
2019-05-10T21:25:07.902Z,97988.95
2019-05-10T21:27:33.969Z,97992.80
2019-05-10T21:29:59.873Z,97986.07
2019-05-10T21:32:25.883Z,97988.02
2019-05-10T21:34:51.953Z,97994.77
2019-05-10T21:37:17.897Z,98030.73
2019-05-10T21:39:43.948Z,98002.84
2019-05-10T21:42:09.916Z,98002.81
2019-05-10T21:44:36.054Z,97995.14
2019-05-10T21:47:02.029Z,98003.24
2019-05-10T21:49:27.942Z,98009.84
2019-05-10T21:51:53.915Z,98011.97
2019-05-10T21:54:19.940Z,98005.77
2019-05-10T21:56:45.846Z,97995.65
2019-05-10T21:59:11.791Z,97988.95
2019-05-10T22:01:37.743Z,97976.13
2019-05-10T22:04:03.856Z,97972.59
2019-05-10T22:06:29.801Z,97975.92
2019-05-10T22:08:55.789Z,97982.81
2019-05-10T22:11:21.880Z,97991.78
2019-05-10T22:13:47.782Z,98005.98
2019-05-10T22:16:14.792Z,97999.37
2019-05-10T22:18:40.875Z,97993.38
2019-05-10T22:21:06.788Z,98002.34
2019-05-10T22:23:32.732Z,98011.34
2019-05-10T22:25:58.689Z,98011.16
2019-05-10T22:28:24.820Z,98016.41
2019-05-10T22:30:50.841Z,98008.17
2019-05-10T22:33:16.744Z,98010.44
2019-05-10T22:35:42.793Z,98008.33
2019-05-10T22:38:08.738Z,97992.73
2019-05-10T22:40:34.895Z,97979.53
2019-05-10T22:43:00.900Z,97972.05
2019-05-10T22:45:26.806Z,97962.56
2019-05-10T22:47:52.955Z,97970.95
2019-05-10T22:50:18.940Z,97978.37
2019-05-10T22:52:44.940Z,97974.45
2019-05-10T22:55:11.133Z,97968.58
2019-05-10T22:57:37.167Z,97962.97
2019-05-10T23:00:05.869Z,97960.98
2019-05-10T23:02:33.701Z,97955.73
2019-05-10T23:04:59.628Z,97957.12
2019-05-10T23:07:25.563Z,97958.92
2019-05-10T23:09:51.543Z,97947.11
2019-05-10T23:12:17.480Z,97949.21
2019-05-10T23:14:43.389Z,97949.97
2019-05-10T23:17:10.327Z,97941.95
2019-05-10T23:19:36.233Z,97938.38
2019-05-10T23:22:02.852Z,97929.02
2019-05-10T23:24:28.769Z,97929.84
2019-05-10T23:26:54.824Z,97929.08
2019-05-10T23:29:20.723Z,97928.83
2019-05-10T23:31:47.669Z,97925.55
2019-05-10T23:34:13.617Z,97928.50
2019-05-10T23:36:39.550Z,97931.28
2019-05-10T23:39:05.689Z,97923.61
2019-05-10T23:41:31.592Z,97933.59
2019-05-10T23:43:57.537Z,97929.77
2019-05-10T23:46:23.438Z,97937.75
2019-05-10T23:48:49.375Z,97940.81
2019-05-10T23:51:15.278Z,97941.44
2019-05-10T23:53:41.245Z,97944.06
2019-05-10T23:56:07.185Z,97932.97
2019-05-10T23:58:33.082Z,97921.19
